sensor_id;sensor_type;location;lat;lon;timestamp;P1;durP1;ratioP1;P2;durP2;ratioP2
33810;SDS011;20119;48.334;16.206;2023-05-07T03:53:45;19.65;;;14.40;;
33810;SDS011;20119;48.334;16.206;2023-05-07T03:56:52;14.40;;;12.93;;
33810;SDS011;20119;48.334;16.206;2023-05-07T03:59:51;14.82;;;13.20;;
33810;SDS011;20119;48.334;16.206;2023-05-07T04:02:50;14.85;;;13.35;;
33810;SDS011;20119;48.334;16.206;2023-05-07T04:05:37;14.05;;;12.63;;
33810;SDS011;20119;48.334;16.206;2023-05-07T04:11:13;12.63;;;11.43;;
33810;SDS011;20119;48.334;16.206;2023-05-07T04:19:14;14.00;;;12.02;;
33810;SDS011;20119;48.334;16.206;2023-05-07T04:24:40;16.63;;;14.57;;
33810;SDS011;20119;48.334;16.206;2023-05-07T04:44:18;14.20;;;12.50;;
33810;SDS011;20119;48.334;16.206;2023-05-07T04:47:08;13.77;;;12.13;;
33810;SDS011;20119;48.334;16.206;2023-05-07T04:55:21;12.25;;;10.38;;
33810;SDS011;20119;48.334;16.206;2023-05-07T05:08:34;13.00;;;11.63;;
33810;SDS011;20119;48.334;16.206;2023-05-07T11:52:32;15.48;;;13.88;;
33810;SDS011;20119;48.334;16.206;2023-05-07T11:55:17;11.32;;;10.10;;
33810;SDS011;20119;48.334;16.206;2023-05-07T14:27:48;7.88;;;7.15;;
33810;SDS011;20119;48.334;16.206;2023-05-07T16:22:28;6.28;;;5.70;;
33810;SDS011;20119;48.334;16.206;2023-05-07T16:25:21;7.72;;;6.03;;
33810;SDS011;20119;48.334;16.206;2023-05-07T18:43:38;8.35;;;7.03;;
33810;SDS011;20119;48.334;16.206;2023-05-07T18:46:05;8.15;;;7.20;;
33810;SDS011;20119;48.334;16.206;2023-05-07T18:48:34;7.38;;;6.70;;
33810;SDS011;20119;48.334;16.206;2023-05-07T18:51:03;8.30;;;7.50;;
33810;SDS011;20119;48.334;16.206;2023-05-07T18:53:32;8.90;;;7.60;;
33810;SDS011;20119;48.334;16.206;2023-05-07T18:56:00;8.32;;;7.38;;
33810;SDS011;20119;48.334;16.206;2023-05-07T18:58:27;8.30;;;7.50;;
33810;SDS011;20119;48.334;16.206;2023-05-07T19:00:57;8.27;;;7.47;;
33810;SDS011;20119;48.334;16.206;2023-05-07T19:03:24;9.60;;;7.72;;
33810;SDS011;20119;48.334;16.206;2023-05-07T19:05:52;8.70;;;7.88;;
33810;SDS011;20119;48.334;16.206;2023-05-07T19:08:20;8.27;;;7.47;;
33810;SDS011;20119;48.334;16.206;2023-05-07T19:10:48;9.18;;;8.30;;
33810;SDS011;20119;48.334;16.206;2023-05-07T19:13:16;9.00;;;8.00;;
33810;SDS011;20119;48.334;16.206;2023-05-07T19:18:21;10.18;;;9.18;;
33810;SDS011;20119;48.334;16.206;2023-05-07T19:20:49;11.13;;;9.73;;
33810;SDS011;20119;48.334;16.206;2023-05-07T19:23:17;11.10;;;10.00;;
33810;SDS011;20119;48.334;16.206;2023-05-07T19:25:46;11.43;;;10.23;;
33810;SDS011;20119;48.334;16.206;2023-05-07T19:28:14;11.88;;;10.57;;
33810;SDS011;20119;48.334;16.206;2023-05-07T19:30:42;11.95;;;10.73;;
33810;SDS011;20119;48.334;16.206;2023-05-07T20:56:38;22.00;;;19.25;;
33810;SDS011;20119;48.334;16.206;2023-05-07T20:59:20;20.73;;;18.55;;
33810;SDS011;20119;48.334;16.206;2023-05-07T21:01:52;22.05;;;19.60;;
33810;SDS011;20119;48.334;16.206;2023-05-07T21:04:29;22.70;;;20.20;;
33810;SDS011;20119;48.334;16.206;2023-05-07T21:07:01;22.25;;;19.95;;
33810;SDS011;20119;48.334;16.206;2023-05-07T21:09:34;22.48;;;19.83;;
33810;SDS011;20119;48.334;16.206;2023-05-07T21:12:05;23.52;;;21.00;;
33810;SDS011;20119;48.334;16.206;2023-05-07T21:17:10;23.30;;;20.80;;
33810;SDS011;20119;48.334;16.206;2023-05-07T21:19:39;26.08;;;21.60;;
33810;SDS011;20119;48.334;16.206;2023-05-07T21:22:12;25.05;;;22.00;;
33810;SDS011;20119;48.334;16.206;2023-05-07T21:25:03;25.25;;;22.55;;
33810;SDS011;20119;48.334;16.206;2023-05-07T21:27:43;24.45;;;21.83;;
33810;SDS011;20119;48.334;16.206;2023-05-07T21:30:12;25.77;;;22.95;;
33810;SDS011;20119;48.334;16.206;2023-05-07T21:32:43;25.70;;;23.00;;
33810;SDS011;20119;48.334;16.206;2023-05-07T21:35:25;26.17;;;23.05;;
33810;SDS011;20119;48.334;16.206;2023-05-07T21:37:57;26.98;;;23.88;;
33810;SDS011;20119;48.334;16.206;2023-05-07T21:40:29;27.40;;;24.50;;
33810;SDS011;20119;48.334;16.206;2023-05-07T21:43:04;27.38;;;24.20;;
33810;SDS011;20119;48.334;16.206;2023-05-07T21:45:33;27.08;;;23.85;;
33810;SDS011;20119;48.334;16.206;2023-05-07T21:48:18;26.65;;;23.80;;
33810;SDS011;20119;48.334;16.206;2023-05-07T21:50:47;27.00;;;23.90;;
33810;SDS011;20119;48.334;16.206;2023-05-07T21:56:38;26.98;;;24.15;;
33810;SDS011;20119;48.334;16.206;2023-05-07T21:59:23;27.73;;;24.58;;
33810;SDS011;20119;48.334;16.206;2023-05-07T22:01:54;27.45;;;24.45;;
33810;SDS011;20119;48.334;16.206;2023-05-07T22:07:23;29.07;;;24.83;;
33810;SDS011;20119;48.334;16.206;2023-05-07T22:09:50;29.85;;;25.45;;
33810;SDS011;20119;48.334;16.206;2023-05-07T22:12:21;28.30;;;25.27;;
33810;SDS011;20119;48.334;16.206;2023-05-07T22:15:14;28.23;;;24.90;;
33810;SDS011;20119;48.334;16.206;2023-05-07T22:17:44;28.60;;;24.52;;
33810;SDS011;20119;48.334;16.206;2023-05-07T22:20:17;27.75;;;24.48;;
33810;SDS011;20119;48.334;16.206;2023-05-07T22:25:15;29.98;;;25.63;;
33810;SDS011;20119;48.334;16.206;2023-05-07T22:27:43;30.83;;;25.65;;
33810;SDS011;20119;48.334;16.206;2023-05-07T22:30:14;29.77;;;25.58;;
33810;SDS011;20119;48.334;16.206;2023-05-07T22:32:43;27.73;;;24.83;;
33810;SDS011;20119;48.334;16.206;2023-05-07T22:35:15;29.10;;;25.95;;
33810;SDS011;20119;48.334;16.206;2023-05-07T22:37:42;28.95;;;24.98;;
33810;SDS011;20119;48.334;16.206;2023-05-07T22:40:10;26.15;;;23.35;;
33810;SDS011;20119;48.334;16.206;2023-05-07T22:45:13;24.38;;;21.63;;
33810;SDS011;20119;48.334;16.206;2023-05-07T22:47:55;25.45;;;22.52;;
33810;SDS011;20119;48.334;16.206;2023-05-07T22:50:42;25.45;;;21.73;;
33810;SDS011;20119;48.334;16.206;2023-05-07T22:53:12;25.15;;;22.45;;
33810;SDS011;20119;48.334;16.206;2023-05-07T22:55:43;23.83;;;21.23;;
33810;SDS011;20119;48.334;16.206;2023-05-07T22:58:10;23.88;;;21.38;;
33810;SDS011;20119;48.334;16.206;2023-05-07T23:00:40;26.67;;;21.63;;
33810;SDS011;20119;48.334;16.206;2023-05-07T23:03:13;23.17;;;20.65;;
33810;SDS011;20119;48.334;16.206;2023-05-07T23:05:43;24.98;;;20.40;;
33810;SDS011;20119;48.334;16.206;2023-05-07T23:08:13;24.57;;;20.60;;
33810;SDS011;20119;48.334;16.206;2023-05-07T23:10:43;22.50;;;20.10;;
33810;SDS011;20119;48.334;16.206;2023-05-07T23:13:27;22.45;;;20.02;;
33810;SDS011;20119;48.334;16.206;2023-05-07T23:16:07;23.23;;;20.27;;
33810;SDS011;20119;48.334;16.206;2023-05-07T23:19:06;23.45;;;20.95;;
33810;SDS011;20119;48.334;16.206;2023-05-07T23:21:56;23.23;;;20.73;;
33810;SDS011;20119;48.334;16.206;2023-05-07T23:24:40;22.60;;;19.90;;
33810;SDS011;20119;48.334;16.206;2023-05-07T23:27:13;22.83;;;20.52;;
33810;SDS011;20119;48.334;16.206;2023-05-07T23:29:45;23.00;;;20.52;;
33810;SDS011;20119;48.334;16.206;2023-05-07T23:32:23;24.35;;;21.13;;
33810;SDS011;20119;48.334;16.206;2023-05-07T23:34:57;22.55;;;20.17;;
33810;SDS011;20119;48.334;16.206;2023-05-07T23:48:23;20.40;;;17.45;;
